Latest Observation

65 Stations

10 Minute Data
as of 5/3/26 10:06 PM PDT
Station Date Time Temp (°F) RH (%) Dew Pt (°F) Wind Spd (mph) Wind Dir (°) Wind Gust (mph) Wind Gst Dir (°) Latest Rain (In) Soil Moist (%) Soil Temp (°F) Daily Rain (In) Daily Min Temp (°F) Daily Max Temp (°F) Daily Max Wind (mph)
Hobart Mills 5/3/26 2200 40.8   2.6 98   1 40.4   2.9 0.0   2.4 N | 0 0.0   4.2 WNW | 293 0.00 - 32.0   0.0 0.04 37.5   2.5 61.5   1.5 13.2   0.9
Prosser Dam 5/3/26 2200 43.6   2.5 88   7 40.2   4.5 0.3   0.7 S | 174 1.5   0.9 S | 175 0.00 20.8   0.3 49.3   0.2 0.06 39.2   5.7 64.2   0.3 31.6   14.3
West Incline Village 5/3/26 2200 38.0   6.8 94   15 36.3   2.2 0.0   2.3 N | 0 0.0   4.5 NNE | 19 0.00 30.6   0.1 44.6   0.0 0.20 37.2   4.7 58.5   1.3 28.7   15.9
Incline Village (Fairview Blvd) 5/3/26 2200 40.2   7.1 91   20 37.8   0.5 0.2   1.6 SSE | 158 2.7   2.0 SSE | 160 0.00 26.0   1.8 52.0   0.2 0.19 39.0   5.3 60.3   1.7 18.1   8.2
Incline Village (Diamond Peak) 5/3/26 2200 39.3   8.9 88   29 36.1   1.4 1.6   5.0 SE | 133 3.4   5.8 SSE | 157 0.00 8.4   0.1 45.4   0.6 0.02 36.4   8.8 54.9   1.2 19.5   5.7
Incline Village (Mill Creek) 5/3/26 2200 41.0   9.1 90   29 38.3   1.1 0.0   1.4 NE | 54 1.2   3.2 NE | 53 0.00 9.7   0.1 46.2   0.4 0.17 40.1   3.9 59.6   1.0 21.7   8.8
Incline Village (Lakeshore Blvd) 5/3/26 2200 42.6   8.5 93   26 40.7   0.1 0.0   1.1 N | 0 0.0   4.6 SSE | 166 0.00 34.7   2.2 52.9   0.7 0.13 41.8   2.2 63.0   1.8 23.7   8.3
Glenbrook 5/3/26 2200 41.0   12.8 90   38 38.3   1.7 0.1   9.2 ESE | 110 2.6   10.9 SSE | 149 0.00 44.3   0.0 45.2   0.4 0.10 40.7   0.4 60.2   1.0 21.7   0.5
Zephyr Cove 5/3/26 2200 41.2   9.1 88   24 38.1   0.7 0.0   0.0 N | 0 0.0   0.0 ESE | 106 0.00 - 34.3   0.0 0.01 41.2   1.9 60.1   2.8 6.1   1.5
Kingsbury Grade 5/3/26 2200 39.4   11.5 93   37 37.6   1.6 0.7   1.8 ENE | 59 3.2   3.0 NE | 38 0.00 5.3   1.6 54.2   2.1 0.18 39.3   2.5 57.1   4.5 23.8   7.1
South Daggett Pass (Ridge) 5/3/26 2200 40.4   7.6 70   9 31.5   4.0 1.8   1.9 ESE | 105 4.1   2.2 ESE | 109 0.00 6.5   0.1 48.6   0.0 0.13 37.6   7.3 53.1   4.9 25.6   6.7
Palomino Valley 5/3/26 2200 54.0   0.9 57   13 39.2   6.3 1.6   1.2 ESE | 115 3.5   5.3 ENE | 60 0.00 6.8   0.0 64.7   0.0 0.00 49.8   8.0 74.2   0.5 45.8   17.1
East Cold Springs 5/3/26 2200 46.6   3.6 73   1 38.6   3.6 12.0   8.3 WSW | 244 17.0   9.9 WSW | 247 0.00 1.5   0.0 56.1   0.2 0.00 46.4   1.6 68.0   2.1 38.4   19.8
Peavine 5/3/26 2200 43.9   4.4 72   2 35.6   4.8 4.9   0.8 SSW | 210 6.5   1.0 SSW | 197 0.00 - 53.4   0.0 0.01 42.5   4.2 63.9   0.4 53.2   30.7
West Verdi Peak 5/3/26 2200 42.0   5.7 84   11 37.5   2.0 3.3   2.7 WNW | 303 5.7   3.8 NW | 308 0.00 16.3   0.3 51.5   0.1 0.07 40.9   5.1 65.0   3.5 26.8   10.8
West Verdi 5/3/26 2200 49.3   0.8 67   12 38.9   5.1 5.4   3.4 W | 278 9.1   1.6 W | 270 0.00 7.8   0.1 60.7   1.0 0.15 46.7   0.0 68.6   1.4 36.8   17.3
South Verdi 5/3/26 2200 48.1   3.1 68   4 38.0   4.4 9.6   6.3 WSW | 248 13.5   5.2 WSW | 248 0.00 16.4   0.3 57.8   2.3 0.13 45.8   0.0 66.0   0.0 59.0   34.5
Northwest Reno 5/3/26 2200 51.8   2.9 57   3 37.1   4.1 10.0   3.7 NW | 306 11.8   2.2 NW | 306 0.00 24.0   0.4 62.8   1.4 0.03 48.7   2.9 69.6   1.3 60.1   31.7
North Lawton 5/3/26 2200 49.3   2.1 66   10 38.4   5.7 5.2   0.2 WSW | 246 7.3   1.1 WSW | 253 0.00 - 39.1   0.0 0.03 47.9   2.2 70.9   3.4 40.2   21.4
West Reno (Mogul) 5/3/26 2200 50.1   2.8 66   5 39.2   4.5 2.7   1.4 NW | 323 7.0   3.1 NW | 320 0.00 38.6   0.3 61.0   0.2 0.02 48.1   0.7 68.9   0.7 49.7   21.6
Caughlin (Hunter Lake Trail) 9/16/25 0800 59.7   3.5 41   11 35.9   2.7 0.0   0.0 N | 0 0.0   0.0 ENE | 66 0.00 15.7   0.0 69.8   0.5 0.00 55.7   3.2 67.7   9.1 9.4   0.9
ArrowCreek 5/3/26 2200 50.5   3.6 62   4 38.0   4.9 4.1   2.0 SSW | 208 6.2   2.9 SSW | 202 0.00 - 32.0   0.0 0.19 49.0   0.1 69.5   1.3 57.0   28.1
Tracy 5/3/26 2200 58.6   1.4 45   5 37.5   3.7 5.6   0.9 WSW | 255 8.6   0.2 WSW | 241 0.00 7.9   0.1 63.9   0.1 0.00 51.1   3.1 73.8   0.3 47.8   24.6
Virginia Highlands 5/3/26 2200 47.0   2.3 62   13 34.8   7.0 5.5   1.5 WSW | 242 8.7   2.2 WSW | 250 0.00 7.2   0.0 56.8   0.3 0.00 46.6   1.4 65.1   0.1 41.1   12.9
Virginia City 5/3/26 2200 49.1   3.2 52   4 32.2   4.7 3.2   10.4 SW | 232 5.7   14.3 W | 264 0.00 8.4   0.1 56.0   0.0 0.00 46.9   4.1 63.8   0.4 46.7   9.6
Six Mile Canyon 9/9/25 0630 60.2   9.6 37   6 33.7   4.8 4.1   2.5 W | 277 6.1   2.9 WNW | 286 0.00 12.5   0.0 75.5   0.7 0.00 57.9   7.6 64.4   1.9 7.0   3.9
Mt Rose Highway 4/30/26 0510 40.8   4.7 47   13 22.3   1.3 2.3   0.2 WSW | 243 4.8   2.1 WSW | 246 0.00 24.1   0.3 43.0   0.8 0.00 40.5   4.7 43.0   5.3 7.7   0.4
Pleasant Valley 5/3/26 2200 51.4   2.3 65   5 40.0   4.0 0.5   2.8 SSW | 209 2.0   5.6 S | 173 0.00 2.8   0.1 63.2   0.8 0.05 45.9   0.1 71.1   2.2 44.7   19.2
New Washoe City 5/3/26 2200 48.8   2.7 70   6 39.7   4.8 4.0   4.2 NE | 41 6.5   4.7 NE | 49 0.00 4.5   0.0 58.5   0.6 0.00 45.0   1.1 68.1   0.6 36.6   8.4
Franktown Creek 5/3/26 2200 48.0   1.6 74   18 40.1   7.2 0.0   0.3 N | 0 0.0   3.2 WNW | 290 0.00 11.2   0.1 56.2   0.4 0.06 45.5   0.4 67.2   0.2 28.6   5.6
Musgrove Creek 5/3/26 2200 47.7   0.4 63   20 35.7   7.4 0.6   1.0 SW | 235 2.1   1.5 SW | 234 0.00 43.7   4.4 53.0   0.4 0.29 43.1   4.7 64.0   0.5 24.3   11.7
East Carson 11/23/24 0110 28.6   28.4 - - 4.7   11.0 SW | 220 14.7   10.1 SW | 219 0.02 - 50.9   0.1 0.02 -25.9   79.1 42.9   14.6 16.0   10.7
Kings Canyon 5/3/26 2200 49.5   2.1 59   13 35.6   7.3 1.9   1.1 SSW | 197 3.4   2.0 W | 262 0.00 15.2   0.1 57.9   2.0 0.04 45.1   0.7 65.4   2.5 29.1   6.6
Carson City (Voltaire Canyon) 5/3/26 2200 51.7   3.1 57   8 37.0   6.3 7.5   10.1 WSW | 239 10.9   12.4 WSW | 248 0.00 2.8   0.0 62.3   0.2 1.22 49.2   1.6 67.3   2.7 64.8   36.8
Jacks Valley 5/3/26 2200 48.8   4.0 66   2 38.0   4.6 0.4   0.2 NNE | 23 2.5   0.2 NNE | 19 0.00 9.6   0.2 62.6   3.8 0.03 46.1   0.8 67.0   2.0 35.5   10.1
Genoa 5/3/26 2200 50.9   2.8 67   7 40.4   5.3 0.0   0.0 N | 0 0.0   0.0 SSW | 194 0.00 5.6   0.2 58.0   6.3 0.04 46.9   0.7 68.0   3.9 19.6   8.9
South Genoa (Walleys Hot Springs) 5/3/26 2200 52.0   3.9 66   1 41.0   4.3 3.3   2.3 SSE | 156 5.3   3.5 SSE | 150 0.00 13.6   0.0 63.6   1.0 0.05 46.2   3.3 67.3   4.8 37.0   15.4
SW Gardnerville (HWY 88) 5/3/26 2200 48.1   5.7 81   11 42.5   1.6 3.2   0.1 SW | 220 5.6   1.6 WSW | 247 0.00 3.4   0.1 57.2   1.7 0.02 44.0   1.9 65.0   5.5 48.1   22.7
Sheridan 5/3/26 2200 48.1   5.5 70   2 38.9   4.6 5.2   0.5 WSW | 247 6.7   1.0 WSW | 250 0.00 2.4   0.0 59.8   1.5 0.13 46.2   0.4 66.6   5.5 38.6   15.0
Ruhenstroth 5/3/26 2200 49.2   5.4 73   8 41.0   2.0 1.6   0.3 SE | 145 3.5   1.4 SE | 137 0.00 12.9   0.1 58.4   2.6 0.02 45.5   0.5 64.1   6.6 44.6   22.2
Double Spring 5/3/26 2200 45.8   3.3 75   10 38.5   0.3 0.0   2.9 N | 0 0.0   4.6 N | 0 0.00 28.6   0.1 55.5   3.8 0.21 40.8   1.2 58.2   7.4 32.5   11.6
North Topaz Lake 5/3/26 2200 51.2   7.3 56   11 36.1   1.2 7.6   5.7 W | 264 10.7   7.3 W | 263 0.00 9.0   0.0 57.1   4.2 0.08 46.2   5.4 61.1   6.8 32.3   10.2
Wild Oat Mountain 5/3/26 2200 48.6   5.3 58   5 34.4   2.9 3.4   4.6 NW | 322 7.3   6.6 N | 1 0.00 16.6   0.1 58.6   2.3 0.05 45.2   6.7 58.8   6.9 36.5   12.3
Smith Valley 5/3/26 2200 55.0   5.0 50   8 36.5   0.4 3.9   2.0 WSW | 249 5.7   1.5 WNW | 286 0.00 5.9   0.1 61.4   2.1 0.01 47.4   1.9 67.9   4.7 38.1   17.9
Pine Grove Mountain 5/3/26 2200 40.2   6.9 65   13 29.6   1.2 4.6   2.2 WSW | 249 6.1   8.6 W | 265 0.00 14.5   0.0 49.6   4.1 0.10 34.8   11.1 53.4   5.3 41.9   17.4
Paradise Hill 5/3/26 2200 59.4   1.0 31   2 28.5   0.8 3.1   1.3 S | 185 7.1   0.2 SSW | 194 0.00 8.0   0.0 60.5   1.0 0.00 45.6   6.7 76.3   1.8 30.7   10.8
Winnemucca 5/3/26 2200 62.8   0.6 34   5 34.1   4.8 11.0   7.1 WSW | 252 14.9   6.1 WSW | 242 0.00 5.9   0.0 59.7   0.5 0.00 52.5   11.4 74.7   1.0 23.4   3.4
NE Elko 5/3/26 2200 48.4   4.8 32   7 19.9   1.9 0.0   0.6 N | 0 0.0   2.7 SSW | 196 0.00 12.6   0.0 61.6   0.2 0.00 40.4   11.8 71.7   0.2 29.2   12.4
North Elko 5/3/26 2200 59.8   3.0 19   5 18.0   5.0 8.7   7.5 NNW | 335 9.9   7.8 NNW | 337 0.00 28.6   0.0 57.9   0.8 0.00 49.4   7.0 70.1   0.4 19.1   0.8
South Elko 5/3/26 2200 91.3   4.4 47   10 68.3   10.9 5.7   1.0 SE | 137 7.5   2.0 ESE | 122 0.00 19.0   0.1 58.8   0.5 0.00 49.9   3.5 - 15.5   4.6
Lamoille 1/28/26 1720 33.2   0.5 65   17 22.8   6.3 5.8   1.5 SSE | 166 7.7   1.9 SE | 139 0.00 12.2   0.0 33.4   0.1 0.02 23.5   2.0 36.5   5.9 25.6   17.4
Reid Gardner Sub 5/3/26 2200 81.3   10.4 16   2 30.1   12.4 4.2   2.5 SSW | 192 8.2   5.6 SSE | 164 0.00 28.0   2.4 75.6   0.8 0.00 48.3   4.4 93.0   4.5 30.1   16.4
Corn Creek 5/3/26 2200 70.2   0.2 22   10 29.8   14.8 4.5   1.7 WNW | 300 7.6   2.6 W | 277 0.00 4.0   0.0 78.3   0.3 0.00 61.8   4.8 83.6   2.1 44.0   18.1
Lucky Strike 5/3/26 2200 62.7   0.6 22   10 23.5   14.7 11.9   3.7 SSW | 196 17.3   6.2 SSW | 205 0.00 4.4   0.0 70.1   0.8 0.00 56.6   2.2 70.2   1.5 41.1   16.2
Lower Angel Peak 5/3/26 2200 56.1   3.7 29   11 24.6   14.1 6.4   0.9 SSE | 149 12.4   3.4 SSE | 161 0.00 10.4   0.1 57.2   0.0 0.00 45.9   3.9 65.5   1.4 31.6   8.3
Angel Peak 5/3/26 2200 44.6   2.6 40   22 21.8   15.5 17.7   8.8 S | 176 26.0   13.8 S | 179 0.00 3.4   0.0 52.2   2.4 0.01 44.4   4.3 55.5   1.9 50.3   24.8
Upper Kyle Canyon 5/3/26 2200 48.9   3.9 33   7 20.9   9.2 5.5   1.9 NE | 55 14.9   7.7 ESE | 111 0.00 13.8   0.1 53.9   1.6 0.00 42.1   4.5 57.9   1.0 30.4   11.8
Mt Charleston 5/3/26 2200 49.8   2.5 33   8 21.7   8.4 3.2   1.5 E | 84 9.8   6.3 E | 96 0.00 18.4   0.1 48.5   0.7 0.00 44.2   4.5 58.4   0.5 26.6   10.3
Mid Kyle Canyon 5/3/26 2200 55.5   5.1 28   5 23.1   9.0 7.8   3.7 SW | 232 11.2   5.0 SW | 222 0.00 7.1   0.1 59.0   1.3 0.00 47.3   4.3 65.9   1.9 33.4   12.0
Blue Diamond 5/3/26 2200 71.6   14.3 19   1 27.1   11.0 7.3   3.5 WNW | 292 16.0   10.8 W | 265 0.00 3.5   0.0 69.8   0.3 0.00 46.2   0.8 81.9   2.9 28.0   11.2
Artesian Sub 5/3/26 2200 82.0   3.4 14   4 28.6   10.0 4.3   4.3 SSW | 203 11.4   11.4 S | 170 0.00 13.3   0.1 73.3   0.2 0.00 62.9   0.1 93.0   5.0 25.2   11.3
North Henderson 5/3/26 2200 82.2   3.1 16   2 31.0   5.4 8.8   7.2 WSW | 238 16.0   13.2 SW | 227 0.00 9.0   0.2 79.4   0.5 0.00 62.2   2.8 92.3   4.5 32.5   15.9
Sandy Valley 5/3/26 2200 72.6   4.1 24   13 33.4   15.6 1.9   7.8 W | 276 5.2   7.8 W | 281 0.00 4.6   0.0 82.6   2.0 0.00 54.4   10.8 86.6   2.7 31.4   3.6
Searchlight 5/3/26 2200 70.5   7.7 19   6 26.6   14.1 6.4   1.7 WNW | 284 12.2   6.1 WNW | 289 0.00 4.8   0.1 79.2   1.4 0.00 56.7   2.6 83.1   2.0 35.2   12.4
Laughlin 5/3/26 2200 86.7   0.5 22   11 43.0   17.4 11.1   10.8 S | 184 18.9   17.4 S | 179 0.00 4.2   0.0 85.4   0.7 0.00 68.7   3.5 96.9   2.2 35.4   14.5
Max     91.3 98 68.3 17.7 - 26.0 - 0.00 44.3 85.4 1.22 68.7 96.9 64.8
Avg     53.0 57 35.0 4.2 - 7.2 - 0.00 13.2 57.9 - - - -
Min     38.0 14 18.0 0.0 - 0.0 - 0.00 1.5 32.0 0.00 34.8 53.1 6.1